Latest Weather Observations for Mount Crawford

IDS60801

Issued at 4:35 pm CST Monday 21 April 2014 (issued every 30 minutes, with the page automatically refreshed every 10 minutes)

About weather observations | Map of weather stations | Latest weather observations for SA | Other Formats
Station Details ID: 023878 Name: MT CRAWFORD AWS Lat: -34.73 Lon: 138.93 Height: 525.0 m
Data from the previous 72 hours. | See also: Recent months at Mount Crawford
Date/Time
CST
Temp
°C
App
Temp
°C
Dew
Point
Rel
Hum
%
Delta-T
°C
Wind Press
QNH
hPa
Press
MSL
hPa
Rain
since 9 am
mm
Dir
 
Spd
km/h
Gust
km/h
Spd
kts
Gust
kts
21/04:33pm 23.6 17.7 7.3 35 8.7 NNW 28 46 15 25 1012.9 - 0.0
21/04:30pm 23.5 17.0 6.7 34 8.9 NW 30 46 16 25 1012.9 1011.9 0.0
21/04:22pm 23.6 17.5 6.8 34 8.9 NW 28 46 15 25 1012.9 - 0.0
21/04:00pm 23.6 18.0 7.3 35 8.7 NW 26 35 14 19 1013.1 - 0.0
21/03:34pm 23.6 17.2 6.8 34 8.9 NNW 30 48 16 26 1013.1 - 0.0
21/03:30pm 23.8 16.7 6.6 33 9.1 NNW 33 48 18 26 1013.1 1012.0 0.0
21/03:02pm 24.4 17.8 6.2 31 9.6 NNW 30 48 16 26 1013.1 - 0.0
21/03:00pm 24.7 17.9 6.9 32 9.5 NNW 32 48 17 26 1013.1 1012.0 0.0
21/02:31pm 24.6 18.3 5.9 30 9.8 NW 28 48 15 26 1013.2 - 0.0
21/02:30pm 24.7 18.3 6.9 32 9.5 NW 30 44 16 24 1013.3 1012.2 0.0
21/02:00pm 24.1 16.1 5.9 31 9.5 NW 37 56 20 30 1013.2 - 0.0
21/01:43pm 24.5 17.6 6.3 31 9.6 NNW 32 52 17 28 1013.5 - 0.0
21/01:30pm 24.4 17.3 6.6 32 9.4 NW 33 50 18 27 1013.7 1012.7 0.0
21/01:03pm 24.4 17.0 6.6 32 9.4 NNW 35 56 19 30 1014.0 - 0.0
21/01:00pm 24.5 17.1 6.7 32 9.5 NNW 35 50 19 27 1014.0 - 0.0
21/12:37pm 23.8 17.0 7.0 34 8.9 NNW 32 50 17 27 1014.3 - 0.0
21/12:30pm 23.6 17.0 7.7 36 8.6 NNW 32 46 17 25 1014.5 1013.5 0.0
21/12:09pm 23.2 16.3 7.3 36 8.5 NW 33 52 18 28 1014.7 - 0.0
21/12:00pm 22.9 15.1 6.6 35 8.6 NNW 37 54 20 29 1014.8 1013.8 0.0
21/11:30am 23.5 16.1 6.7 34 8.9 NNW 35 56 19 30 1015.1 1014.1 0.0
21/11:00am 23.8 17.3 8.2 37 8.5 NNW 32 52 17 28 1015.4 - 0.0
21/10:41am 22.0 15.3 7.4 39 7.8 NNW 32 50 17 27 1015.6 - 0.0
21/10:30am 21.6 15.5 8.1 42 7.2 NW 30 44 16 24 1015.7 1014.7 0.0
21/10:00am 20.5 13.7 7.8 44 6.7 NNW 33 46 18 25 1015.7 - 0.0
21/09:30am 20.4 14.1 7.4 43 6.8 NNW 30 50 16 27 1015.8 1014.8 0.0
21/09:01am 19.8 13.1 7.5 45 6.5 NNW 32 50 17 27 1015.8 - 0.0
21/09:00am 19.8 12.9 7.2 44 6.6 NNW 33 50 18 27 1015.8 1014.8 0.0
21/08:41am 18.5 12.5 7.0 47 5.9 N 28 48 15 26 1015.9 - 0.0
21/08:30am 18.1 12.1 6.9 48 5.7 N 28 39 15 21 1015.9 1014.9 0.0
21/08:00am 17.5 11.4 6.7 49 5.5 N 28 37 15 20 1015.8 - 0.0
21/07:30am 17.2 10.7 6.4 49 5.5 N 30 43 16 23 1015.5 1014.5 0.0
21/07:00am 17.4 11.3 6.6 49 5.5 N 28 39 15 21 1015.4 - 0.0
21/06:30am 16.5 11.1 6.3 51 5.1 NNE 24 33 13 18 1015.5 1014.5 0.0
21/06:00am 16.4 10.2 6.2 51 5.1 NNE 28 35 15 19 1015.4 1014.4 0.0
21/05:30am 16.5 10.3 6.1 50 5.2 NNE 28 37 15 20 1015.4 1014.4 0.0
21/05:00am 16.4 9.8 6.0 50 5.2 NNE 30 44 16 24 1015.6 - 0.0
21/04:30am 16.1 11.1 6.3 52 4.9 NNE 22 32 12 17 1015.5 1014.5 0.0
21/04:00am 16.1 9.6 6.3 52 4.9 NNE 30 41 16 22 1015.4 - 0.0
21/03:30am 15.1 9.3 6.1 55 4.5 NE 26 33 14 18 1015.6 1014.6 0.0
21/03:00am 15.1 10.1 6.4 56 4.3 NE 22 32 12 17 1015.9 1014.9 0.0
21/02:30am 14.8 9.5 6.6 58 4.1 NE 24 35 13 19 1016.1 1015.1 0.0
21/02:00am 14.6 9.7 6.7 59 3.9 NE 22 32 12 17 1016.6 - 0.0
21/01:30am 14.4 7.9 6.7 60 3.8 NE 30 37 16 20 1016.7 1015.8 0.0
21/01:00am 14.4 8.4 7.0 61 3.7 NE 28 37 15 20 1016.9 - 0.0
21/12:30am 14.1 8.6 7.4 64 3.4 NE 26 32 14 17 1017.3 1016.3 0.0
21/12:00am 13.7 8.3 7.9 68 2.9 NE 26 35 14 19 1017.4 1016.4 0.0
 
Date/Time
CST
Temp
°C
App
Temp
°C
Dew
Point
Rel
Hum
%
Delta-T
°C
Wind Press
QNH
hPa
Press
MSL
hPa
Rain
since 9 am
mm
Dir
 
Spd
km/h
Gust
km/h
Spd
kts
Gust
kts
20/11:30pm 12.7 7.9 8.8 77 2.0 ENE 24 30 13 16 1017.6 1016.6 0.0
20/11:00pm 13.2 8.8 8.9 75 2.2 E 22 30 12 16 1017.9 - 0.0
20/10:30pm 13.2 9.4 8.9 75 2.2 E 19 22 10 12 1018.2 1017.2 0.0
20/10:00pm 13.7 10.2 8.7 72 2.6 E 17 19 9 10 1018.6 - 0.0
20/09:30pm 14.1 10.9 8.5 69 2.9 E 15 19 8 10 1018.7 1017.8 0.0
20/09:00pm 13.4 10.2 8.3 71 2.6 E 15 17 8 9 1018.7 1017.8 0.0
20/08:30pm 14.4 11.9 8.1 66 3.2 E 11 13 6 7 1018.6 1017.7 0.0
20/08:00pm 14.8 14.4 8.3 65 3.4 CALM 0 0 0 0 1018.7 - 0.0
20/07:30pm 14.8 14.0 8.1 64 3.4 SSE 2 7 1 4 1018.5 1017.6 0.0
20/07:00pm 15.2 12.3 8.2 63 3.6 SW 13 17 7 9 1018.9 - 0.0
20/06:30pm 15.1 12.2 8.1 63 3.6 WSW 13 15 7 8 1018.5 1017.6 0.0
20/06:00pm 15.4 13.3 8.2 62 3.7 W 9 13 5 7 1018.1 1017.1 0.0
20/05:30pm 16.1 14.4 8.3 60 4.1 SSW 7 9 4 5 1017.8 1016.8 0.0
20/05:00pm 16.7 13.5 8.4 58 4.4 WSW 15 19 8 10 1018.0 - 0.0
20/04:30pm 18.2 16.2 8.7 54 5.0 SW 9 13 5 7 1017.8 1016.8 0.0
20/04:00pm 18.5 15.8 9.0 54 5.1 WSW 13 20 7 11 1017.7 - 0.0
20/03:30pm 18.1 15.8 8.9 55 4.9 WSW 11 19 6 10 1017.7 1016.7 0.0
20/03:00pm 18.7 16.2 8.1 50 5.6 WSW 11 28 6 15 1017.7 1016.7 0.0
20/02:30pm 18.9 15.7 8.3 50 5.6 WSW 15 20 8 11 1017.5 1016.5 0.0
20/02:00pm 18.5 15.0 7.3 48 5.8 WSW 15 22 8 12 1017.5 - 0.0
20/01:30pm 18.1 14.7 7.8 51 5.4 W 15 24 8 13 1017.5 1016.5 0.0
20/01:00pm 17.5 14.1 7.8 53 5.1 WNW 15 26 8 14 1017.8 - 0.0
20/12:30pm 17.5 14.6 8.1 54 4.9 W 13 24 7 13 1018.0 1017.0 0.0
20/12:00pm 17.4 14.6 6.9 50 5.4 WNW 11 19 6 10 1018.3 1017.4 0.0
20/11:30am 15.9 13.9 7.1 56 4.5 W 7 11 4 6 1018.6 1017.7 0.0
20/11:00am 15.1 11.7 5.9 54 4.5 W 13 19 7 10 1019.0 - 0.0
20/10:30am 14.6 11.7 6.4 58 4.1 WNW 11 17 6 9 1019.2 1018.2 0.0
20/10:00am 13.8 9.7 6.4 61 3.7 W 17 20 9 11 1019.2 - 0.0
20/09:30am 13.5 10.4 5.7 59 3.8 W 11 17 6 9 1019.2 1018.2 0.0
20/09:00am 13.0 9.9 5.7 61 3.5 W 11 15 6 8 1019.2 1018.2 0.0
20/08:30am 12.6 9.4 5.3 61 3.5 W 11 13 6 7 1018.9 1018.0 0.0
20/08:00am 12.0 9.5 5.0 62 3.3 W 7 9 4 5 1018.6 - 0.0
20/07:30am 10.9 8.0 4.6 65 2.9 W 9 11 5 6 1018.4 1017.5 0.0
20/07:00am 10.4 7.1 4.8 68 2.6 W 11 13 6 7 1018.1 - 0.0
20/06:30am 10.2 7.3 4.4 67 2.7 W 9 11 5 6 1017.7 1016.7 0.0
20/06:00am 10.5 7.9 4.4 66 2.8 WNW 7 9 4 5 1017.7 1016.7 0.0
20/05:30am 10.6 8.0 4.3 65 2.9 NW 7 9 4 5 1017.5 1016.5 0.0
20/05:00am 10.6 8.2 4.5 66 2.8 N 6 7 3 4 1017.5 - 0.0
20/04:30am 10.8 8.3 4.7 66 2.8 NNW 7 11 4 6 1017.2 1016.2 0.0
20/04:00am 10.9 8.0 4.6 65 2.9 NW 9 11 5 6 1017.3 - 0.0
20/03:30am 11.1 8.6 4.8 65 2.9 NW 7 9 4 5 1017.3 1016.3 0.0
20/03:00am 10.9 7.6 4.6 65 2.9 N 11 13 6 7 1017.1 1016.1 0.0
20/02:30am 10.9 7.6 4.6 65 2.9 N 11 13 6 7 1017.2 1016.2 0.0
20/02:00am 10.9 7.6 4.6 65 2.9 N 11 13 6 7 1017.3 - 0.0
20/01:30am 10.9 7.2 4.6 65 2.9 N 13 17 7 9 1017.5 1016.5 0.0
20/01:00am 10.9 8.0 4.4 64 3.0 N 9 13 5 7 1017.6 - 0.0
20/12:30am 11.0 8.1 4.5 64 3.0 NNE 9 11 5 6 1017.7 1016.7 0.0
20/12:00am 10.5 7.5 4.2 65 2.9 NE 9 13 5 7 1017.7 1016.7 0.0
 
Date/Time
CST
Temp
°C
App
Temp
°C
Dew
Point
Rel
Hum
%
Delta-T
°C
Wind Press
QNH
hPa
Press
MSL
hPa
Rain
since 9 am
mm
Dir
 
Spd
km/h
Gust
km/h
Spd
kts
Gust
kts
19/11:30pm 9.8 5.7 4.4 69 2.5 ENE 15 20 8 11 1017.7 1016.7 0.0
19/11:00pm 9.6 5.9 4.4 70 2.4 ENE 13 15 7 8 1017.8 - 0.0
19/10:30pm 10.0 6.7 4.4 68 2.6 ENE 11 13 6 7 1018.3 1017.4 0.0
19/10:00pm 10.4 7.1 4.5 67 2.7 ENE 11 13 6 7 1018.5 - 0.0
19/09:30pm 9.8 6.6 5.2 73 2.1 ESE 11 13 6 7 1018.4 1017.5 0.0
19/09:00pm 10.4 7.2 5.0 69 2.5 E 11 13 6 7 1018.5 1017.6 0.0
19/08:30pm 10.1 6.7 5.9 75 2.0 ESE 13 13 7 7 1018.4 1017.5 0.0
19/08:00pm 10.4 7.4 6.2 75 2.0 SE 11 15 6 8 1018.5 - 0.0
19/07:30pm 10.4 7.4 6.0 74 2.1 ESE 11 13 6 7 1018.5 1017.6 0.0
19/07:00pm 10.3 7.3 5.9 74 2.1 E 11 15 6 8 1018.5 - 0.0
19/06:30pm 10.9 8.4 6.6 75 2.1 SSW 9 11 5 6 1018.4 1017.5 0.0
19/06:00pm 11.9 10.7 4.6 61 3.4 CALM 0 0 0 0 1018.3 1017.4 0.0
19/05:30pm 12.7 10.5 5.1 60 3.6 NE 6 7 3 4 1018.2 1017.2 0.0
19/05:00pm 13.2 10.7 4.6 56 4.1 NE 7 9 4 5 1018.3 - 0.0
19/04:30pm 13.0 10.3 5.7 61 3.5 NE 9 11 5 6 1018.4 1017.5 0.0
19/04:00pm 14.0 10.8 4.9 54 4.4 N 11 13 6 7 1018.5 - 0.0
19/03:30pm 14.4 11.1 4.4 51 4.7 N 11 17 6 9 1018.5 1017.6 0.0
19/03:00pm 15.1 12.1 5.9 54 4.5 N 11 17 6 9 1018.8 1017.9 0.0
19/02:30pm 15.1 12.1 5.9 54 4.5 NE 11 17 6 9 1018.8 1017.9 0.0
19/02:00pm 14.7 11.5 5.0 52 4.7 N 11 15 6 8 1019.0 - 0.0
19/01:30pm 14.6 12.5 5.9 56 4.3 NE 6 11 3 6 1019.4 1018.4 0.0
19/01:00pm 12.8 10.1 5.5 61 3.5 SW 9 13 5 7 1020.1 - 0.0
19/12:30pm 13.4 10.9 6.7 64 3.3 N 9 17 5 9 1020.5 1019.6 0.0
19/12:00pm 13.8 10.2 4.9 55 4.2 NE 13 22 7 12 1021.2 1020.2 0.0
19/11:30am 13.5 11.3 6.1 61 3.6 NE 7 13 4 7 1021.5 1020.5 0.0
19/11:00am 12.0 9.6 4.2 59 3.6 E 6 13 3 7 1021.8 - 0.0
19/10:30am 12.2 9.8 5.4 63 3.2 NNE 7 13 4 7 1022.3 1021.4 0.0
19/10:00am 12.4 9.4 6.0 65 3.1 E 11 19 6 10 1022.5 - 0.0
19/09:30am 11.7 8.7 5.8 67 2.8 NNE 11 15 6 8 1022.7 1021.8 0.0
19/09:00am 10.8 8.3 6.6 75 2.0 NE 9 13 5 7 1022.8 1021.9 0.0
19/08:30am 10.0 7.4 6.3 78 1.8 ENE 9 11 5 6 1022.7 1021.8 0.0
19/08:00am 10.4 7.7 7.3 81 1.5 ENE 11 15 6 8 1022.5 - 0.0
19/07:30am 9.3 7.0 7.3 87 1.0 ENE 9 13 5 7 1022.2 1021.3 0.0
19/07:00am 8.4 6.4 6.9 90 0.7 ENE 7 9 4 5 1022.0 - 0.0
19/06:30am 8.1 5.6 6.7 91 0.7 NE 9 9 5 5 1021.9 1021.0 0.0
19/06:00am 7.7 4.8 6.5 92 0.6 E 11 13 6 7 1021.8 1020.9 0.0
19/05:30am 7.5 4.6 6.4 93 0.5 E 11 13 6 7 1021.5 1020.5 0.0
19/05:00am 7.8 4.5 6.4 91 0.7 E 13 19 7 10 1021.5 - 0.0
19/04:30am 7.7 4.0 6.2 90 0.7 ESE 15 17 8 9 1021.4 1020.4 0.0
19/04:00am 8.5 5.9 6.1 85 1.1 E 9 13 5 7 1021.4 - 0.0
19/03:30am 8.4 5.5 6.5 88 0.9 E 11 13 6 7 1021.5 1020.5 0.0
19/03:00am 8.2 5.3 6.5 89 0.8 E 11 13 6 7 1021.6 1020.6 0.0
19/02:30am 8.1 5.2 6.6 90 0.7 E 11 13 6 7 1021.8 1020.9 0.0
19/02:00am 8.2 4.9 6.3 88 0.9 E 13 15 7 8 1022.1 - 0.0
19/01:30am 8.5 5.2 6.3 86 1.0 ESE 13 15 7 8 1022.3 1021.4 0.0
19/01:00am 8.3 5.4 6.3 87 0.9 ESE 11 13 6 7 1022.4 - 0.0
19/12:30am 8.4 5.2 6.7 89 0.8 ESE 13 15 7 8 1022.5 1021.6 0.0
19/12:00am 8.4 5.1 6.5 88 0.9 SE 13 17 7 9 1022.4 1021.5 0.0
 
Date/Time
CST
Temp
°C
App
Temp
°C
Dew
Point
Rel
Hum
%
Delta-T
°C
Wind Press
QNH
hPa
Press
MSL
hPa
Rain
since 9 am
mm
Dir
 
Spd
km/h
Gust
km/h
Spd
kts
Gust
kts
18/11:30pm 8.3 4.9 5.9 85 1.1 ESE 13 13 7 7 1022.5 1021.6 0.0
18/11:00pm 8.5 5.5 6.1 85 1.1 ESE 11 13 6 7 1022.6 - 0.0
18/10:30pm 8.3 5.6 5.6 83 1.3 ESE 9 13 5 7 1022.9 1022.0 0.0
18/10:00pm 8.7 5.2 5.4 80 1.5 SE 13 17 7 9 1022.9 - 0.0
18/09:30pm 9.2 5.4 5.8 79 1.6 SE 15 19 8 10 1023.0 1022.1 0.0
18/09:00pm 9.2 4.9 5.4 77 1.8 SE 17 20 9 11 1022.9 1022.0 0.0
18/08:30pm 9.6 5.3 5.4 75 2.0 SE 17 22 9 12 1022.9 1022.0 0.0
18/08:00pm 9.9 5.0 4.9 71 2.3 SSE 20 24 11 13 1022.7 - 0.0
18/07:30pm 9.7 4.7 4.7 71 2.3 SSE 20 28 11 15 1022.5 1021.6 0.0
18/07:00pm 9.7 5.7 4.7 71 2.3 SSE 15 24 8 13 1022.4 - 0.0
18/06:30pm 10.3 5.4 4.9 69 2.5 SSE 20 28 11 15 1022.3 1021.4 0.0
18/06:00pm 10.7 6.0 5.3 69 2.5 SSE 19 28 10 15 1022.2 1021.3 0.0
18/05:30pm 11.6 7.4 5.9 68 2.7 SSE 17 30 9 16 1021.9 1021.0 0.0
18/05:00pm 12.8 8.3 5.9 63 3.3 S 19 26 10 14 1021.8 - 0.0

Other Formats:

Comma delimited format used in spreadsheet applications
http://www.bom.gov.au/fwo/IDS60801/IDS60801.94678.axf

JavaScript Object Notation format (JSON) in row-major order
http://www.bom.gov.au/fwo/IDS60801/IDS60801.94678.json